sensor_id;sensor_type;location;lat;lon;timestamp;P1;durP1;ratioP1;P2;durP2;ratioP2
67747;SDS011;54543;50.712;6.070;2023-06-14T00:02:13;8.32;;;4.65;;
67747;SDS011;54543;50.712;6.070;2023-06-14T00:04:39;5.40;;;4.57;;
67747;SDS011;54543;50.712;6.070;2023-06-14T00:07:07;5.70;;;4.32;;
67747;SDS011;54543;50.712;6.070;2023-06-14T00:09:34;7.38;;;4.90;;
67747;SDS011;54543;50.712;6.070;2023-06-14T00:12:00;5.68;;;4.55;;
67747;SDS011;54543;50.712;6.070;2023-06-14T00:14:25;6.28;;;5.30;;
67747;SDS011;54543;50.712;6.070;2023-06-14T00:16:51;5.65;;;4.80;;
67747;SDS011;54543;50.712;6.070;2023-06-14T00:19:23;5.35;;;4.43;;
67747;SDS011;54543;50.712;6.070;2023-06-14T00:21:52;5.93;;;4.75;;
67747;SDS011;54543;50.712;6.070;2023-06-14T00:24:18;6.65;;;4.85;;
67747;SDS011;54543;50.712;6.070;2023-06-14T00:26:43;5.32;;;4.82;;
67747;SDS011;54543;50.712;6.070;2023-06-14T00:29:09;5.75;;;5.15;;
67747;SDS011;54543;50.712;6.070;2023-06-14T00:31:34;5.82;;;4.65;;
67747;SDS011;54543;50.712;6.070;2023-06-14T00:34:00;8.45;;;4.25;;
67747;SDS011;54543;50.712;6.070;2023-06-14T00:36:26;5.75;;;5.15;;
67747;SDS011;54543;50.712;6.070;2023-06-14T00:38:51;5.70;;;5.10;;
67747;SDS011;54543;50.712;6.070;2023-06-14T00:41:17;5.70;;;5.10;;
67747;SDS011;54543;50.712;6.070;2023-06-14T00:43:42;7.40;;;5.20;;
67747;SDS011;54543;50.712;6.070;2023-06-14T00:46:08;5.47;;;4.68;;
67747;SDS011;54543;50.712;6.070;2023-06-14T00:48:34;6.22;;;4.90;;
67747;SDS011;54543;50.712;6.070;2023-06-14T00:51:01;6.45;;;4.47;;
67747;SDS011;54543;50.712;6.070;2023-06-14T00:53:29;6.55;;;4.75;;
67747;SDS011;54543;50.712;6.070;2023-06-14T00:55:56;5.28;;;4.78;;
67747;SDS011;54543;50.712;6.070;2023-06-14T00:58:22;5.50;;;4.57;;
67747;SDS011;54543;50.712;6.070;2023-06-14T01:00:48;7.05;;;5.00;;
67747;SDS011;54543;50.712;6.070;2023-06-14T01:03:13;5.90;;;4.63;;
67747;SDS011;54543;50.712;6.070;2023-06-14T01:05:47;5.47;;;4.30;;
67747;SDS011;54543;50.712;6.070;2023-06-14T01:13:29;6.32;;;4.63;;
67747;SDS011;54543;50.712;6.070;2023-06-14T01:16:02;5.35;;;4.35;;
67747;SDS011;54543;50.712;6.070;2023-06-14T01:18:28;5.53;;;4.50;;
67747;SDS011;54543;50.712;6.070;2023-06-14T01:20:55;5.25;;;4.40;;
67747;SDS011;54543;50.712;6.070;2023-06-14T01:23:21;5.20;;;4.40;;
67747;SDS011;54543;50.712;6.070;2023-06-14T01:25:48;5.32;;;4.63;;
67747;SDS011;54543;50.712;6.070;2023-06-14T01:28:18;4.50;;;4.10;;
67747;SDS011;54543;50.712;6.070;2023-06-14T01:30:46;6.82;;;4.35;;
67747;SDS011;54543;50.712;6.070;2023-06-14T01:33:15;6.28;;;4.25;;
67747;SDS011;54543;50.712;6.070;2023-06-14T01:35:43;5.47;;;4.43;;
67747;SDS011;54543;50.712;6.070;2023-06-14T01:38:12;5.05;;;4.40;;
67747;SDS011;54543;50.712;6.070;2023-06-14T01:40:38;5.25;;;4.43;;
67747;SDS011;54543;50.712;6.070;2023-06-14T01:43:05;5.28;;;3.92;;
67747;SDS011;54543;50.712;6.070;2023-06-14T01:45:31;5.22;;;4.03;;
67747;SDS011;54543;50.712;6.070;2023-06-14T01:47:58;6.35;;;4.40;;
67747;SDS011;54543;50.712;6.070;2023-06-14T01:50:27;7.00;;;4.13;;
67747;SDS011;54543;50.712;6.070;2023-06-14T01:52:55;6.97;;;4.38;;
67747;SDS011;54543;50.712;6.070;2023-06-14T01:55:20;6.90;;;5.05;;
67747;SDS011;54543;50.712;6.070;2023-06-14T01:57:47;5.20;;;4.60;;
67747;SDS011;54543;50.712;6.070;2023-06-14T02:00:14;7.80;;;4.90;;
67747;SDS011;54543;50.712;6.070;2023-06-14T02:02:41;8.90;;;4.95;;
67747;SDS011;54543;50.712;6.070;2023-06-14T02:05:06;5.32;;;4.30;;
67747;SDS011;54543;50.712;6.070;2023-06-14T02:07:32;5.10;;;4.18;;
67747;SDS011;54543;50.712;6.070;2023-06-14T02:09:59;5.70;;;4.88;;
67747;SDS011;54543;50.712;6.070;2023-06-14T02:12:25;5.60;;;4.63;;
67747;SDS011;54543;50.712;6.070;2023-06-14T02:14:50;5.15;;;4.65;;
67747;SDS011;54543;50.712;6.070;2023-06-14T02:17:16;5.57;;;4.68;;
67747;SDS011;54543;50.712;6.070;2023-06-14T02:19:42;5.22;;;4.60;;
67747;SDS011;54543;50.712;6.070;2023-06-14T02:22:07;5.70;;;4.80;;
67747;SDS011;54543;50.712;6.070;2023-06-14T02:24:33;5.32;;;4.50;;
67747;SDS011;54543;50.712;6.070;2023-06-14T02:26:59;5.57;;;4.40;;
67747;SDS011;54543;50.712;6.070;2023-06-14T02:29:25;5.78;;;4.75;;
67747;SDS011;54543;50.712;6.070;2023-06-14T02:31:50;5.28;;;4.28;;
67747;SDS011;54543;50.712;6.070;2023-06-14T02:34:16;6.60;;;4.18;;
67747;SDS011;54543;50.712;6.070;2023-06-14T02:36:42;5.55;;;3.80;;
67747;SDS011;54543;50.712;6.070;2023-06-14T02:39:10;5.60;;;4.45;;
67747;SDS011;54543;50.712;6.070;2023-06-14T02:41:37;5.00;;;4.05;;
67747;SDS011;54543;50.712;6.070;2023-06-14T02:44:03;5.30;;;4.25;;
67747;SDS011;54543;50.712;6.070;2023-06-14T02:46:29;5.15;;;4.15;;
67747;SDS011;54543;50.712;6.070;2023-06-14T02:48:54;6.43;;;4.85;;
67747;SDS011;54543;50.712;6.070;2023-06-14T02:51:20;6.95;;;4.15;;
67747;SDS011;54543;50.712;6.070;2023-06-14T02:53:45;7.05;;;4.47;;
67747;SDS011;54543;50.712;6.070;2023-06-14T02:56:11;5.63;;;4.38;;
67747;SDS011;54543;50.712;6.070;2023-06-14T02:58:37;6.53;;;4.05;;
67747;SDS011;54543;50.712;6.070;2023-06-14T03:01:04;6.70;;;4.60;;
67747;SDS011;54543;50.712;6.070;2023-06-14T03:03:30;8.75;;;3.78;;
67747;SDS011;54543;50.712;6.070;2023-06-14T03:05:56;4.80;;;4.00;;
67747;SDS011;54543;50.712;6.070;2023-06-14T03:08:22;6.78;;;5.50;;
67747;SDS011;54543;50.712;6.070;2023-06-14T03:10:52;6.13;;;4.70;;
67747;SDS011;54543;50.712;6.070;2023-06-14T03:13:18;5.85;;;4.60;;
67747;SDS011;54543;50.712;6.070;2023-06-14T03:15:47;5.35;;;4.10;;
67747;SDS011;54543;50.712;6.070;2023-06-14T03:18:15;5.97;;;4.20;;
67747;SDS011;54543;50.712;6.070;2023-06-14T03:20:44;5.32;;;4.38;;
67747;SDS011;54543;50.712;6.070;2023-06-14T03:23:10;5.45;;;4.45;;
67747;SDS011;54543;50.712;6.070;2023-06-14T03:25:36;5.82;;;4.78;;
67747;SDS011;54543;50.712;6.070;2023-06-14T03:28:04;6.20;;;4.47;;
67747;SDS011;54543;50.712;6.070;2023-06-14T03:30:30;5.70;;;4.43;;
67747;SDS011;54543;50.712;6.070;2023-06-14T03:32:56;7.68;;;6.00;;
67747;SDS011;54543;50.712;6.070;2023-06-14T03:35:22;6.28;;;5.63;;
67747;SDS011;54543;50.712;6.070;2023-06-14T03:37:48;6.90;;;5.65;;
67747;SDS011;54543;50.712;6.070;2023-06-14T03:40:15;6.47;;;4.72;;
67747;SDS011;54543;50.712;6.070;2023-06-14T03:42:41;6.32;;;4.95;;
67747;SDS011;54543;50.712;6.070;2023-06-14T03:45:07;5.95;;;4.93;;
67747;SDS011;54543;50.712;6.070;2023-06-14T03:47:34;5.55;;;4.70;;
67747;SDS011;54543;50.712;6.070;2023-06-14T03:50:00;5.95;;;4.70;;
67747;SDS011;54543;50.712;6.070;2023-06-14T03:52:27;5.30;;;4.25;;
67747;SDS011;54543;50.712;6.070;2023-06-14T03:54:52;5.47;;;4.47;;
67747;SDS011;54543;50.712;6.070;2023-06-14T03:57:19;5.00;;;3.95;;
67747;SDS011;54543;50.712;6.070;2023-06-14T03:59:49;4.80;;;3.90;;
67747;SDS011;54543;50.712;6.070;2023-06-14T04:02:14;5.60;;;4.22;;
67747;SDS011;54543;50.712;6.070;2023-06-14T04:04:41;5.65;;;4.30;;
67747;SDS011;54543;50.712;6.070;2023-06-14T04:07:09;4.95;;;4.05;;
67747;SDS011;54543;50.712;6.070;2023-06-14T04:09:37;5.20;;;4.22;;
67747;SDS011;54543;50.712;6.070;2023-06-14T04:12:04;4.60;;;4.05;;
67747;SDS011;54543;50.712;6.070;2023-06-14T04:14:31;5.20;;;3.95;;
67747;SDS011;54543;50.712;6.070;2023-06-14T04:16:57;8.93;;;4.72;;
67747;SDS011;54543;50.712;6.070;2023-06-14T04:19:23;7.20;;;5.07;;
67747;SDS011;54543;50.712;6.070;2023-06-14T04:21:49;5.38;;;4.15;;
67747;SDS011;54543;50.712;6.070;2023-06-14T04:24:15;5.07;;;4.25;;
67747;SDS011;54543;50.712;6.070;2023-06-14T04:26:42;6.00;;;4.55;;
67747;SDS011;54543;50.712;6.070;2023-06-14T04:29:13;4.85;;;3.90;;
67747;SDS011;54543;50.712;6.070;2023-06-14T04:31:43;4.78;;;4.03;;
67747;SDS011;54543;50.712;6.070;2023-06-14T04:34:10;5.03;;;4.13;;
67747;SDS011;54543;50.712;6.070;2023-06-14T04:36:40;5.70;;;3.92;;
67747;SDS011;54543;50.712;6.070;2023-06-14T04:39:16;6.25;;;4.07;;
67747;SDS011;54543;50.712;6.070;2023-06-14T04:41:46;8.35;;;4.05;;
67747;SDS011;54543;50.712;6.070;2023-06-14T04:44:12;5.82;;;4.30;;
67747;SDS011;54543;50.712;6.070;2023-06-14T04:46:38;5.72;;;4.22;;
67747;SDS011;54543;50.712;6.070;2023-06-14T04:49:11;7.20;;;5.05;;
67747;SDS011;54543;50.712;6.070;2023-06-14T04:51:39;7.63;;;4.85;;
67747;SDS011;54543;50.712;6.070;2023-06-14T04:54:06;5.78;;;4.70;;
67747;SDS011;54543;50.712;6.070;2023-06-14T04:56:35;26.00;;;9.60;;
67747;SDS011;54543;50.712;6.070;2023-06-14T04:59:02;7.93;;;5.50;;
67747;SDS011;54543;50.712;6.070;2023-06-14T05:01:31;10.77;;;4.95;;
67747;SDS011;54543;50.712;6.070;2023-06-14T05:03:58;6.82;;;4.50;;
67747;SDS011;54543;50.712;6.070;2023-06-14T05:06:24;5.95;;;4.20;;
67747;SDS011;54543;50.712;6.070;2023-06-14T05:08:51;5.82;;;4.32;;
67747;SDS011;54543;50.712;6.070;2023-06-14T05:11:16;4.95;;;4.10;;
67747;SDS011;54543;50.712;6.070;2023-06-14T05:13:42;7.22;;;4.90;;
67747;SDS011;54543;50.712;6.070;2023-06-14T05:16:10;8.10;;;5.47;;
67747;SDS011;54543;50.712;6.070;2023-06-14T05:18:40;5.07;;;4.57;;
67747;SDS011;54543;50.712;6.070;2023-06-14T05:21:06;9.93;;;5.35;;
67747;SDS011;54543;50.712;6.070;2023-06-14T05:23:32;11.05;;;5.35;;
67747;SDS011;54543;50.712;6.070;2023-06-14T05:25:57;9.80;;;5.50;;
67747;SDS011;54543;50.712;6.070;2023-06-14T05:28:23;10.80;;;5.15;;
67747;SDS011;54543;50.712;6.070;2023-06-14T05:30:49;7.57;;;5.57;;
67747;SDS011;54543;50.712;6.070;2023-06-14T05:33:15;5.95;;;4.32;;
67747;SDS011;54543;50.712;6.070;2023-06-14T05:35:40;5.70;;;4.43;;
67747;SDS011;54543;50.712;6.070;2023-06-14T05:38:06;6.05;;;4.47;;
67747;SDS011;54543;50.712;6.070;2023-06-14T05:40:32;11.80;;;9.15;;
67747;SDS011;54543;50.712;6.070;2023-06-14T05:42:58;6.55;;;5.07;;
67747;SDS011;54543;50.712;6.070;2023-06-14T05:45:24;7.47;;;4.53;;
67747;SDS011;54543;50.712;6.070;2023-06-14T05:47:49;4.63;;;4.13;;
67747;SDS011;54543;50.712;6.070;2023-06-14T05:50:15;5.00;;;3.85;;
67747;SDS011;54543;50.712;6.070;2023-06-14T05:52:41;8.50;;;4.05;;
67747;SDS011;54543;50.712;6.070;2023-06-14T05:55:06;5.53;;;3.70;;
67747;SDS011;54543;50.712;6.070;2023-06-14T05:57:32;6.90;;;4.20;;
67747;SDS011;54543;50.712;6.070;2023-06-14T05:59:58;6.18;;;3.67;;
67747;SDS011;54543;50.712;6.070;2023-06-14T06:02:23;5.22;;;3.65;;
67747;SDS011;54543;50.712;6.070;2023-06-14T06:04:49;4.55;;;3.80;;
67747;SDS011;54543;50.712;6.070;2023-06-14T06:07:15;5.47;;;3.67;;
67747;SDS011;54543;50.712;6.070;2023-06-14T06:09:41;4.90;;;4.05;;
67747;SDS011;54543;50.712;6.070;2023-06-14T06:12:07;5.95;;;4.43;;
67747;SDS011;54543;50.712;6.070;2023-06-14T06:14:32;4.30;;;3.75;;
67747;SDS011;54543;50.712;6.070;2023-06-14T06:16:58;6.47;;;5.05;;
67747;SDS011;54543;50.712;6.070;2023-06-14T06:19:24;5.07;;;3.90;;
67747;SDS011;54543;50.712;6.070;2023-06-14T06:21:50;6.30;;;3.92;;
67747;SDS011;54543;50.712;6.070;2023-06-14T06:24:16;4.45;;;3.90;;
67747;SDS011;54543;50.712;6.070;2023-06-14T06:26:41;4.75;;;3.70;;
67747;SDS011;54543;50.712;6.070;2023-06-14T06:29:07;7.22;;;4.47;;
67747;SDS011;54543;50.712;6.070;2023-06-14T06:31:33;7.88;;;6.20;;
67747;SDS011;54543;50.712;6.070;2023-06-14T06:33:58;5.13;;;4.03;;
67747;SDS011;54543;50.712;6.070;2023-06-14T06:36:24;5.72;;;3.67;;
67747;SDS011;54543;50.712;6.070;2023-06-14T06:38:50;6.15;;;4.03;;
67747;SDS011;54543;50.712;6.070;2023-06-14T06:41:18;14.48;;;10.98;;
67747;SDS011;54543;50.712;6.070;2023-06-14T06:43:44;17.88;;;15.57;;
67747;SDS011;54543;50.712;6.070;2023-06-14T06:46:09;21.23;;;18.08;;
67747;SDS011;54543;50.712;6.070;2023-06-14T06:48:35;16.42;;;13.63;;
67747;SDS011;54543;50.712;6.070;2023-06-14T06:51:00;12.98;;;9.70;;
67747;SDS011;54543;50.712;6.070;2023-06-14T06:53:26;10.20;;;7.28;;
67747;SDS011;54543;50.712;6.070;2023-06-14T06:55:51;6.80;;;5.55;;
67747;SDS011;54543;50.712;6.070;2023-06-14T06:58:17;6.68;;;5.38;;
67747;SDS011;54543;50.712;6.070;2023-06-14T07:00:43;13.15;;;9.23;;
67747;SDS011;54543;50.712;6.070;2023-06-14T07:03:08;7.97;;;6.80;;
67747;SDS011;54543;50.712;6.070;2023-06-14T07:05:34;7.95;;;5.95;;
67747;SDS011;54543;50.712;6.070;2023-06-14T07:07:59;7.30;;;5.72;;
67747;SDS011;54543;50.712;6.070;2023-06-14T07:10:25;14.60;;;11.77;;
67747;SDS011;54543;50.712;6.070;2023-06-14T07:12:51;14.23;;;10.70;;
67747;SDS011;54543;50.712;6.070;2023-06-14T07:15:16;7.70;;;6.07;;
67747;SDS011;54543;50.712;6.070;2023-06-14T07:17:42;12.90;;;9.80;;
67747;SDS011;54543;50.712;6.070;2023-06-14T07:20:08;7.47;;;5.93;;
67747;SDS011;54543;50.712;6.070;2023-06-14T07:22:39;9.13;;;7.88;;
67747;SDS011;54543;50.712;6.070;2023-06-14T07:25:06;11.25;;;8.55;;
67747;SDS011;54543;50.712;6.070;2023-06-14T07:27:33;9.95;;;8.55;;
67747;SDS011;54543;50.712;6.070;2023-06-14T07:29:59;10.30;;;8.55;;
67747;SDS011;54543;50.712;6.070;2023-06-14T07:32:24;13.98;;;11.25;;
67747;SDS011;54543;50.712;6.070;2023-06-14T07:34:50;17.90;;;14.13;;
67747;SDS011;54543;50.712;6.070;2023-06-14T07:37:15;9.73;;;7.88;;
67747;SDS011;54543;50.712;6.070;2023-06-14T07:39:41;8.15;;;6.68;;
67747;SDS011;54543;50.712;6.070;2023-06-14T07:42:07;9.02;;;7.93;;
67747;SDS011;54543;50.712;6.070;2023-06-14T07:44:32;7.65;;;6.32;;
67747;SDS011;54543;50.712;6.070;2023-06-14T07:46:58;9.98;;;7.13;;
67747;SDS011;54543;50.712;6.070;2023-06-14T07:49:25;6.32;;;5.03;;
67747;SDS011;54543;50.712;6.070;2023-06-14T07:51:51;6.47;;;4.88;;
67747;SDS011;54543;50.712;6.070;2023-06-14T07:54:16;14.18;;;10.85;;
67747;SDS011;54543;50.712;6.070;2023-06-14T07:56:42;11.82;;;8.07;;
67747;SDS011;54543;50.712;6.070;2023-06-14T07:59:08;8.02;;;6.10;;
67747;SDS011;54543;50.712;6.070;2023-06-14T08:01:33;5.90;;;4.97;;
67747;SDS011;54543;50.712;6.070;2023-06-14T08:03:59;5.50;;;4.35;;
67747;SDS011;54543;50.712;6.070;2023-06-14T08:06:25;6.78;;;4.55;;
67747;SDS011;54543;50.712;6.070;2023-06-14T08:08:51;6.57;;;5.25;;
67747;SDS011;54543;50.712;6.070;2023-06-14T08:11:16;6.95;;;5.43;;
67747;SDS011;54543;50.712;6.070;2023-06-14T08:13:42;5.43;;;4.35;;
67747;SDS011;54543;50.712;6.070;2023-06-14T08:16:07;6.15;;;4.03;;
67747;SDS011;54543;50.712;6.070;2023-06-14T08:18:33;6.53;;;3.90;;
67747;SDS011;54543;50.712;6.070;2023-06-14T08:20:58;6.63;;;4.20;;
67747;SDS011;54543;50.712;6.070;2023-06-14T08:23:24;5.95;;;3.70;;
67747;SDS011;54543;50.712;6.070;2023-06-14T08:25:49;7.78;;;6.22;;
67747;SDS011;54543;50.712;6.070;2023-06-14T08:28:15;10.13;;;9.05;;
67747;SDS011;54543;50.712;6.070;2023-06-14T08:30:41;8.02;;;6.40;;
67747;SDS011;54543;50.712;6.070;2023-06-14T08:33:07;6.03;;;5.05;;
67747;SDS011;54543;50.712;6.070;2023-06-14T08:35:33;5.63;;;4.82;;
67747;SDS011;54543;50.712;6.070;2023-06-14T08:38:02;5.47;;;4.72;;
67747;SDS011;54543;50.712;6.070;2023-06-14T08:40:29;4.50;;;3.92;;
67747;SDS011;54543;50.712;6.070;2023-06-14T08:42:56;10.02;;;7.30;;
67747;SDS011;54543;50.712;6.070;2023-06-14T08:45:24;11.82;;;9.10;;
67747;SDS011;54543;50.712;6.070;2023-06-14T08:47:53;8.15;;;6.63;;
67747;SDS011;54543;50.712;6.070;2023-06-14T08:50:23;7.85;;;5.38;;
67747;SDS011;54543;50.712;6.070;2023-06-14T08:52:56;6.00;;;4.35;;
67747;SDS011;54543;50.712;6.070;2023-06-14T08:55:25;5.30;;;4.10;;
67747;SDS011;54543;50.712;6.070;2023-06-14T08:57:56;9.15;;;7.45;;
67747;SDS011;54543;50.712;6.070;2023-06-14T09:00:23;7.35;;;5.15;;
67747;SDS011;54543;50.712;6.070;2023-06-14T09:02:50;7.85;;;5.63;;
67747;SDS011;54543;50.712;6.070;2023-06-14T09:05:25;7.32;;;4.90;;
67747;SDS011;54543;50.712;6.070;2023-06-14T09:07:51;5.25;;;4.25;;
67747;SDS011;54543;50.712;6.070;2023-06-14T09:10:18;4.90;;;3.72;;
67747;SDS011;54543;50.712;6.070;2023-06-14T09:12:45;7.45;;;6.40;;
67747;SDS011;54543;50.712;6.070;2023-06-14T09:15:11;8.40;;;6.85;;
67747;SDS011;54543;50.712;6.070;2023-06-14T09:17:40;7.20;;;5.72;;
67747;SDS011;54543;50.712;6.070;2023-06-14T09:20:07;6.90;;;4.88;;
67747;SDS011;54543;50.712;6.070;2023-06-14T09:22:38;6.43;;;5.40;;
67747;SDS011;54543;50.712;6.070;2023-06-14T09:25:05;4.78;;;4.00;;
67747;SDS011;54543;50.712;6.070;2023-06-14T09:27:32;5.68;;;4.05;;
67747;SDS011;54543;50.712;6.070;2023-06-14T09:29:57;8.25;;;6.28;;
67747;SDS011;54543;50.712;6.070;2023-06-14T09:32:23;7.35;;;6.10;;
67747;SDS011;54543;50.712;6.070;2023-06-14T09:34:50;6.15;;;4.65;;
67747;SDS011;54543;50.712;6.070;2023-06-14T09:37:32;6.05;;;5.32;;
67747;SDS011;54543;50.712;6.070;2023-06-14T09:39:58;7.80;;;6.68;;
67747;SDS011;54543;50.712;6.070;2023-06-14T09:42:24;9.88;;;8.75;;
67747;SDS011;54543;50.712;6.070;2023-06-14T09:44:51;6.40;;;4.97;;
67747;SDS011;54543;50.712;6.070;2023-06-14T09:47:18;4.80;;;3.78;;
67747;SDS011;54543;50.712;6.070;2023-06-14T09:49:45;5.07;;;4.10;;
67747;SDS011;54543;50.712;6.070;2023-06-14T09:52:13;7.97;;;7.18;;
67747;SDS011;54543;50.712;6.070;2023-06-14T09:54:41;8.43;;;7.25;;
67747;SDS011;54543;50.712;6.070;2023-06-14T09:57:16;6.05;;;4.95;;
67747;SDS011;54543;50.712;6.070;2023-06-14T09:59:47;6.05;;;4.30;;
67747;SDS011;54543;50.712;6.070;2023-06-14T10:07:41;4.55;;;3.72;;
67747;SDS011;54543;50.712;6.070;2023-06-14T10:10:09;5.32;;;4.35;;
67747;SDS011;54543;50.712;6.070;2023-06-14T10:12:35;6.75;;;4.90;;
67747;SDS011;54543;50.712;6.070;2023-06-14T10:15:01;7.25;;;5.82;;
67747;SDS011;54543;50.712;6.070;2023-06-14T10:17:43;6.13;;;4.80;;
67747;SDS011;54543;50.712;6.070;2023-06-14T10:20:21;6.10;;;4.47;;
67747;SDS011;54543;50.712;6.070;2023-06-14T10:23:06;5.90;;;5.30;;
67747;SDS011;54543;50.712;6.070;2023-06-14T10:25:38;5.40;;;4.72;;
67747;SDS011;54543;50.712;6.070;2023-06-14T10:33:27;6.57;;;5.32;;
67747;SDS011;54543;50.712;6.070;2023-06-14T10:36:06;5.22;;;4.40;;
67747;SDS011;54543;50.712;6.070;2023-06-14T10:38:58;5.05;;;3.45;;
67747;SDS011;54543;50.712;6.070;2023-06-14T10:41:26;4.18;;;2.80;;
67747;SDS011;54543;50.712;6.070;2023-06-14T10:44:08;6.25;;;4.68;;
67747;SDS011;54543;50.712;6.070;2023-06-14T10:49:05;6.53;;;4.53;;
67747;SDS011;54543;50.712;6.070;2023-06-14T10:51:41;3.47;;;2.92;;
67747;SDS011;54543;50.712;6.070;2023-06-14T10:54:13;7.00;;;3.45;;
67747;SDS011;54543;50.712;6.070;2023-06-14T10:56:46;4.95;;;3.38;;
67747;SDS011;54543;50.712;6.070;2023-06-14T10:59:13;5.88;;;4.53;;
67747;SDS011;54543;50.712;6.070;2023-06-14T11:01:54;5.57;;;3.00;;
67747;SDS011;54543;50.712;6.070;2023-06-14T11:04:33;3.45;;;2.80;;
67747;SDS011;54543;50.712;6.070;2023-06-14T11:07:36;3.75;;;2.10;;
67747;SDS011;54543;50.712;6.070;2023-06-14T11:12:48;2.80;;;2.33;;
67747;SDS011;54543;50.712;6.070;2023-06-14T11:15:15;4.80;;;3.83;;
67747;SDS011;54543;50.712;6.070;2023-06-14T11:17:50;4.88;;;4.38;;
67747;SDS011;54543;50.712;6.070;2023-06-14T11:20:18;4.55;;;2.97;;
67747;SDS011;54543;50.712;6.070;2023-06-14T11:22:44;4.57;;;3.67;;
67747;SDS011;54543;50.712;6.070;2023-06-14T11:25:13;6.13;;;4.32;;
67747;SDS011;54543;50.712;6.070;2023-06-14T11:27:43;5.13;;;3.65;;
67747;SDS011;54543;50.712;6.070;2023-06-14T11:30:09;5.43;;;3.80;;
67747;SDS011;54543;50.712;6.070;2023-06-14T11:32:35;4.93;;;3.88;;
67747;SDS011;54543;50.712;6.070;2023-06-14T11:35:02;4.65;;;3.20;;
67747;SDS011;54543;50.712;6.070;2023-06-14T11:37:29;3.85;;;2.63;;
67747;SDS011;54543;50.712;6.070;2023-06-14T11:39:59;4.93;;;4.00;;
67747;SDS011;54543;50.712;6.070;2023-06-14T11:42:28;4.35;;;3.13;;
67747;SDS011;54543;50.712;6.070;2023-06-14T11:44:55;4.30;;;2.55;;
67747;SDS011;54543;50.712;6.070;2023-06-14T11:47:21;4.63;;;3.53;;
67747;SDS011;54543;50.712;6.070;2023-06-14T11:49:47;4.07;;;2.60;;
67747;SDS011;54543;50.712;6.070;2023-06-14T11:52:13;4.05;;;2.70;;
67747;SDS011;54543;50.712;6.070;2023-06-14T11:54:39;5.72;;;3.67;;
67747;SDS011;54543;50.712;6.070;2023-06-14T11:57:09;5.45;;;4.55;;
67747;SDS011;54543;50.712;6.070;2023-06-14T11:59:39;5.53;;;3.53;;
67747;SDS011;54543;50.712;6.070;2023-06-14T12:02:05;5.03;;;2.85;;
67747;SDS011;54543;50.712;6.070;2023-06-14T12:04:31;4.20;;;2.72;;
67747;SDS011;54543;50.712;6.070;2023-06-14T12:07:07;2.92;;;2.15;;
67747;SDS011;54543;50.712;6.070;2023-06-14T12:10:25;3.85;;;2.40;;
67747;SDS011;54543;50.712;6.070;2023-06-14T12:12:26;3.40;;;2.70;;
67747;SDS011;54543;50.712;6.070;2023-06-14T12:14:52;5.25;;;2.80;;
67747;SDS011;54543;50.712;6.070;2023-06-14T12:17:18;7.28;;;2.50;;
67747;SDS011;54543;50.712;6.070;2023-06-14T12:19:45;4.15;;;3.25;;
67747;SDS011;54543;50.712;6.070;2023-06-14T12:22:12;3.70;;;2.75;;
67747;SDS011;54543;50.712;6.070;2023-06-14T12:24:38;3.58;;;2.50;;
67747;SDS011;54543;50.712;6.070;2023-06-14T12:27:04;3.35;;;2.40;;
67747;SDS011;54543;50.712;6.070;2023-06-14T12:29:31;2.80;;;2.33;;
67747;SDS011;54543;50.712;6.070;2023-06-14T12:31:57;4.55;;;2.53;;
67747;SDS011;54543;50.712;6.070;2023-06-14T12:34:23;3.35;;;2.50;;
67747;SDS011;54543;50.712;6.070;2023-06-14T12:36:52;3.45;;;2.38;;
67747;SDS011;54543;50.712;6.070;2023-06-14T12:39:19;3.33;;;2.30;;
67747;SDS011;54543;50.712;6.070;2023-06-14T12:41:45;3.00;;;2.05;;
67747;SDS011;54543;50.712;6.070;2023-06-14T12:44:11;3.10;;;2.40;;
67747;SDS011;54543;50.712;6.070;2023-06-14T12:46:38;4.35;;;2.83;;
67747;SDS011;54543;50.712;6.070;2023-06-14T12:49:13;3.15;;;2.22;;
67747;SDS011;54543;50.712;6.070;2023-06-14T12:51:39;3.65;;;2.50;;
67747;SDS011;54543;50.712;6.070;2023-06-14T12:54:05;2.90;;;2.10;;
67747;SDS011;54543;50.712;6.070;2023-06-14T12:56:31;5.07;;;4.03;;
67747;SDS011;54543;50.712;6.070;2023-06-14T12:58:57;4.22;;;2.78;;
67747;SDS011;54543;50.712;6.070;2023-06-14T13:01:26;3.50;;;2.50;;
67747;SDS011;54543;50.712;6.070;2023-06-14T13:03:52;4.57;;;2.30;;
67747;SDS011;54543;50.712;6.070;2023-06-14T13:06:21;2.20;;;1.60;;
67747;SDS011;54543;50.712;6.070;2023-06-14T13:08:48;3.92;;;2.60;;
67747;SDS011;54543;50.712;6.070;2023-06-14T13:11:14;3.97;;;2.35;;
67747;SDS011;54543;50.712;6.070;2023-06-14T13:13:39;11.38;;;4.78;;
67747;SDS011;54543;50.712;6.070;2023-06-14T13:16:05;5.97;;;3.20;;
67747;SDS011;54543;50.712;6.070;2023-06-14T13:18:31;4.22;;;2.55;;
67747;SDS011;54543;50.712;6.070;2023-06-14T13:20:56;10.90;;;5.72;;
67747;SDS011;54543;50.712;6.070;2023-06-14T13:23:22;16.65;;;6.45;;
67747;SDS011;54543;50.712;6.070;2023-06-14T13:25:48;9.23;;;5.43;;
67747;SDS011;54543;50.712;6.070;2023-06-14T13:28:16;8.15;;;5.07;;
67747;SDS011;54543;50.712;6.070;2023-06-14T13:30:42;6.22;;;3.00;;
67747;SDS011;54543;50.712;6.070;2023-06-14T13:33:07;5.45;;;3.17;;
67747;SDS011;54543;50.712;6.070;2023-06-14T13:35:33;4.05;;;3.00;;
67747;SDS011;54543;50.712;6.070;2023-06-14T13:37:59;4.70;;;2.70;;
67747;SDS011;54543;50.712;6.070;2023-06-14T13:40:24;2.97;;;2.20;;
67747;SDS011;54543;50.712;6.070;2023-06-14T13:42:50;7.88;;;4.88;;
67747;SDS011;54543;50.712;6.070;2023-06-14T13:45:15;5.95;;;4.13;;
67747;SDS011;54543;50.712;6.070;2023-06-14T13:47:41;5.20;;;3.47;;
67747;SDS011;54543;50.712;6.070;2023-06-14T13:50:07;3.55;;;2.47;;
67747;SDS011;54543;50.712;6.070;2023-06-14T13:52:33;9.18;;;5.28;;
67747;SDS011;54543;50.712;6.070;2023-06-14T13:54:59;4.53;;;3.08;;
67747;SDS011;54543;50.712;6.070;2023-06-14T13:57:25;5.57;;;2.50;;
67747;SDS011;54543;50.712;6.070;2023-06-14T13:59:51;3.53;;;2.20;;
67747;SDS011;54543;50.712;6.070;2023-06-14T14:02:19;5.05;;;2.92;;
67747;SDS011;54543;50.712;6.070;2023-06-14T14:04:45;5.25;;;3.25;;
67747;SDS011;54543;50.712;6.070;2023-06-14T14:07:16;5.15;;;3.33;;
67747;SDS011;54543;50.712;6.070;2023-06-14T14:09:42;5.85;;;4.10;;
67747;SDS011;54543;50.712;6.070;2023-06-14T14:12:08;5.00;;;3.10;;
67747;SDS011;54543;50.712;6.070;2023-06-14T14:14:34;5.18;;;2.65;;
67747;SDS011;54543;50.712;6.070;2023-06-14T14:16:59;6.88;;;3.53;;
67747;SDS011;54543;50.712;6.070;2023-06-14T14:19:25;4.00;;;2.85;;
67747;SDS011;54543;50.712;6.070;2023-06-14T14:21:50;6.38;;;4.35;;
67747;SDS011;54543;50.712;6.070;2023-06-14T14:24:18;5.72;;;2.78;;
67747;SDS011;54543;50.712;6.070;2023-06-14T14:26:44;3.60;;;2.60;;
67747;SDS011;54543;50.712;6.070;2023-06-14T14:29:12;3.10;;;2.15;;
67747;SDS011;54543;50.712;6.070;2023-06-14T14:31:38;3.55;;;2.00;;
67747;SDS011;54543;50.712;6.070;2023-06-14T14:34:03;4.38;;;2.35;;
67747;SDS011;54543;50.712;6.070;2023-06-14T14:36:30;2.63;;;2.08;;
67747;SDS011;54543;50.712;6.070;2023-06-14T14:38:55;2.58;;;1.70;;
67747;SDS011;54543;50.712;6.070;2023-06-14T14:41:21;2.10;;;1.75;;
67747;SDS011;54543;50.712;6.070;2023-06-14T14:43:46;4.93;;;2.95;;
67747;SDS011;54543;50.712;6.070;2023-06-14T14:46:12;5.75;;;2.50;;
67747;SDS011;54543;50.712;6.070;2023-06-14T14:48:38;5.68;;;4.28;;
67747;SDS011;54543;50.712;6.070;2023-06-14T14:51:03;5.75;;;3.72;;
67747;SDS011;54543;50.712;6.070;2023-06-14T14:53:29;3.75;;;2.92;;
67747;SDS011;54543;50.712;6.070;2023-06-14T14:55:55;4.15;;;2.63;;
67747;SDS011;54543;50.712;6.070;2023-06-14T14:58:20;7.72;;;6.80;;
67747;SDS011;54543;50.712;6.070;2023-06-14T15:00:46;5.85;;;4.85;;
67747;SDS011;54543;50.712;6.070;2023-06-14T15:03:12;9.32;;;8.32;;
67747;SDS011;54543;50.712;6.070;2023-06-14T15:05:38;13.38;;;11.70;;
67747;SDS011;54543;50.712;6.070;2023-06-14T15:08:04;7.65;;;6.85;;